createdAt,value
2019-04-27T00:00:24.736Z,78.70
2019-04-27T00:03:02.052Z,78.30
2019-04-27T00:05:43.379Z,79.00
2019-04-27T00:08:28.428Z,79.20
2019-04-27T00:11:10.784Z,78.80
2019-04-27T00:13:40.871Z,78.70
2019-04-27T00:16:33.843Z,78.70
2019-04-27T00:19:31.762Z,78.90
2019-04-27T00:22:26.704Z,79.30
2019-04-27T00:24:55.977Z,79.50
2019-04-27T00:27:25.189Z,78.60
2019-04-27T00:29:54.528Z,79.00
2019-04-27T00:32:23.761Z,78.30
2019-04-27T00:34:53.286Z,79.40
2019-04-27T00:37:42.705Z,78.70
2019-04-27T00:40:19.749Z,78.70
2019-04-27T00:42:49.023Z,79.10
2019-04-27T00:45:18.385Z,78.70
2019-04-27T00:47:56.829Z,78.90
2019-04-27T00:50:18.490Z,78.60
2019-04-27T00:52:47.928Z,78.40
2019-04-27T00:55:17.065Z,78.40
2019-04-27T00:58:08.272Z,78.20
2019-04-27T01:01:08.841Z,78.10
2019-04-27T01:03:45.003Z,78.10
2019-04-27T01:06:14.914Z,78.20
2019-04-27T01:08:44.978Z,77.80
2019-04-27T01:11:14.307Z,77.90
2019-04-27T01:13:43.553Z,78.10
2019-04-27T01:16:15.618Z,78.00
2019-04-27T01:18:44.150Z,78.10
2019-04-27T01:21:13.329Z,78.30
2019-04-27T01:23:42.477Z,77.80
2019-04-27T01:26:41.030Z,77.70
2019-04-27T01:29:13.396Z,77.80
2019-04-27T01:31:42.595Z,77.50
2019-04-27T01:34:11.716Z,77.50
2019-04-27T01:36:40.855Z,77.70
2019-04-27T01:39:14.247Z,77.50
2019-04-27T01:41:43.491Z,77.70
2019-04-27T01:44:12.912Z,77.70
2019-04-27T01:46:42.153Z,78.40
2019-04-27T01:49:11.387Z,77.50
2019-04-27T01:51:40.684Z,77.20
2019-04-27T01:54:12.000Z,77.10
2019-04-27T01:56:41.198Z,77.20
2019-04-27T01:59:10.775Z,77.00
2019-04-27T02:02:08.803Z,77.10
2019-04-27T02:04:59.413Z,77.30
2019-04-27T02:07:30.047Z,77.50
2019-04-27T02:09:59.387Z,77.20
2019-04-27T02:12:29.452Z,77.30
2019-04-27T02:14:59.584Z,77.50
2019-04-27T02:17:28.910Z,77.70
2019-04-27T02:19:59.528Z,77.70
2019-04-27T02:22:29.742Z,77.90
2019-04-27T02:24:59.176Z,77.90
2019-04-27T02:27:30.862Z,78.20
2019-04-27T02:30:25.360Z,78.00
2019-04-27T02:33:13.761Z,77.90
2019-04-27T02:35:43.010Z,77.80
2019-04-27T02:38:12.117Z,77.50
2019-04-27T02:41:00.013Z,77.90
2019-04-27T02:43:44.172Z,77.40
2019-04-27T02:46:13.370Z,77.00
2019-04-27T02:48:55.318Z,77.00
2019-04-27T02:51:15.963Z,77.00
2019-04-27T02:53:55.446Z,76.70
2019-04-27T02:56:24.890Z,76.90
2019-04-27T02:58:54.088Z,76.30
2019-04-27T03:01:24.773Z,76.30
2019-04-27T03:03:54.055Z,75.90
2019-04-27T03:06:23.541Z,76.30
2019-04-27T03:08:54.301Z,76.80
2019-04-27T03:11:24.652Z,76.40
2019-04-27T03:14:34.932Z,76.80
2019-04-27T03:17:10.668Z,77.20
2019-04-27T03:19:59.783Z,77.00
2019-04-27T03:22:39.584Z,77.30
2019-04-27T03:25:32.034Z,77.40
2019-04-27T03:28:06.275Z,78.00
2019-04-27T03:30:36.609Z,78.70
2019-04-27T03:33:06.005Z,78.60
2019-04-27T03:35:36.637Z,79.20
2019-04-27T03:38:06.099Z,79.80
2019-04-27T03:40:35.815Z,80.60
2019-04-27T03:43:11.777Z,80.70
2019-04-27T03:45:41.225Z,81.50
2019-04-27T03:48:10.848Z,82.40
2019-04-27T03:50:59.592Z,82.20
2019-04-27T03:53:39.731Z,82.70
2019-04-27T03:56:20.100Z,83.10
2019-04-27T03:58:55.521Z,84.00
2019-04-27T04:01:24.704Z,84.10
2019-04-27T04:03:53.862Z,84.30
2019-04-27T04:06:23.123Z,84.00
2019-04-27T04:08:55.118Z,84.60
2019-04-27T04:11:42.534Z,84.50
2019-04-27T04:14:15.771Z,84.10
2019-04-27T04:16:52.287Z,84.90
2019-04-27T04:19:21.623Z,85.00
2019-04-27T04:21:50.804Z,84.70
2019-04-27T04:24:20.187Z,84.30
2019-04-27T04:26:50.295Z,85.40
2019-04-27T04:29:20.335Z,84.90
2019-04-27T04:31:50.511Z,84.70
2019-04-27T04:34:20.209Z,85.30
2019-04-27T04:36:50.395Z,86.00
2019-04-27T04:39:20.035Z,86.40
2019-04-27T04:42:04.432Z,86.80
2019-04-27T04:44:55.334Z,86.50
2019-04-27T04:47:54.193Z,87.00
2019-04-27T04:50:23.433Z,87.40
2019-04-27T04:52:52.575Z,87.10
2019-04-27T04:55:21.828Z,86.50
2019-04-27T04:57:50.938Z,87.40
2019-04-27T05:00:20.215Z,86.50
2019-04-27T05:02:49.598Z,87.90
2019-04-27T05:05:19.355Z,87.50
2019-04-27T05:07:48.924Z,87.20
2019-04-27T05:10:18.851Z,87.20
2019-04-27T05:12:49.041Z,87.70
2019-04-27T05:15:20.645Z,88.30
2019-04-27T05:17:51.013Z,87.80
2019-04-27T05:20:41.819Z,88.20
2019-04-27T05:23:11.019Z,87.90
2019-04-27T05:25:40.052Z,87.90
2019-04-27T05:28:09.781Z,88.30
2019-04-27T05:30:39.261Z,89.10
2019-04-27T05:33:09.106Z,87.70
2019-04-27T05:35:40.986Z,88.20
2019-04-27T05:38:13.084Z,88.50
2019-04-27T05:40:40.670Z,88.60
2019-04-27T05:43:11.079Z,88.30
2019-04-27T05:46:13.759Z,89.00
2019-04-27T05:48:43.061Z,88.50
2019-04-27T05:51:12.170Z,87.60
2019-04-27T05:53:41.556Z,88.50
2019-04-27T05:56:10.751Z,88.30
2019-04-27T05:58:39.920Z,87.90
2019-04-27T06:01:10.898Z,88.40
2019-04-27T06:03:40.177Z,87.60
2019-04-27T06:06:29.511Z,88.00
2019-04-27T06:08:59.509Z,87.40
2019-04-27T06:11:28.804Z,88.00
2019-04-27T06:13:59.355Z,86.90
2019-04-27T06:16:29.534Z,87.40
2019-04-27T06:18:59.453Z,87.50
2019-04-27T06:21:29.524Z,86.50
2019-04-27T06:23:59.041Z,86.80
2019-04-27T06:26:30.059Z,86.30
2019-04-27T06:28:59.610Z,85.20
2019-04-27T06:31:29.732Z,85.50
2019-04-27T06:34:01.995Z,85.70
2019-04-27T06:36:42.325Z,85.10
2019-04-27T06:39:11.653Z,85.20
2019-04-27T06:41:41.016Z,84.30
2019-04-27T06:44:11.447Z,84.70
2019-04-27T06:46:40.866Z,82.60
2019-04-27T06:49:11.129Z,82.70
2019-04-27T06:51:40.693Z,82.60
2019-04-27T06:54:10.032Z,82.00
2019-04-27T06:56:39.233Z,82.30
2019-04-27T06:59:08.864Z,82.90
2019-04-27T07:01:38.970Z,83.00
2019-04-27T07:04:10.689Z,83.10
2019-04-27T07:06:52.804Z,83.20
2019-04-27T07:09:10.770Z,83.30
2019-04-27T07:11:40.019Z,82.60
2019-04-27T07:14:11.551Z,82.00
2019-04-27T07:16:40.371Z,83.10
2019-04-27T07:19:09.651Z,83.50
2019-04-27T07:21:40.002Z,83.40
2019-04-27T07:24:09.478Z,83.10
2019-04-27T07:26:39.227Z,82.20
2019-04-27T07:29:09.613Z,82.00
2019-04-27T07:31:40.134Z,82.30
2019-04-27T07:34:09.830Z,82.00
2019-04-27T07:36:39.463Z,79.40
2019-04-27T07:39:11.580Z,80.20
2019-04-27T07:41:40.949Z,80.50
2019-04-27T07:44:25.065Z,80.00
2019-04-27T07:47:12.044Z,80.00
2019-04-27T07:49:41.283Z,78.70
2019-04-27T07:52:10.413Z,79.60
2019-04-27T07:54:40.985Z,79.10
2019-04-27T07:57:10.347Z,78.70
2019-04-27T07:59:42.083Z,77.80
2019-04-27T08:02:11.074Z,78.00
2019-04-27T08:04:40.427Z,77.00
2019-04-27T08:07:10.172Z,78.30
2019-04-27T08:09:39.765Z,78.30
2019-04-27T08:12:10.739Z,81.00
2019-04-27T08:14:40.216Z,81.40
2019-04-27T08:17:09.815Z,81.10
2019-04-27T08:19:39.556Z,81.80
2019-04-27T08:22:09.572Z,81.70
2019-04-27T08:24:39.749Z,82.00
2019-04-27T08:27:34.228Z,82.60
2019-04-27T08:30:35.261Z,82.80
2019-04-27T08:33:06.856Z,82.20
2019-04-27T08:35:35.983Z,82.70
2019-04-27T08:38:05.364Z,83.30
2019-04-27T08:40:34.663Z,83.50
2019-04-27T08:43:03.915Z,82.50
2019-04-27T08:45:33.183Z,83.20
2019-04-27T08:48:02.383Z,82.40
2019-04-27T08:50:31.785Z,81.50
2019-04-27T08:53:00.957Z,81.10
2019-04-27T08:55:30.179Z,81.40
2019-04-27T08:57:59.360Z,81.20
2019-04-27T09:00:29.112Z,81.70
2019-04-27T09:02:59.540Z,81.40
2019-04-27T09:05:29.147Z,80.30
2019-04-27T09:08:20.079Z,81.40
2019-04-27T09:11:01.584Z,81.30
2019-04-27T09:13:52.524Z,81.10
2019-04-27T09:17:00.117Z,81.20
2019-04-27T09:19:41.778Z,80.00
2019-04-27T09:22:15.985Z,79.60
2019-04-27T09:24:41.920Z,80.10
2019-04-27T09:27:11.104Z,80.50
2019-04-27T09:29:40.204Z,79.60
2019-04-27T09:32:09.285Z,80.60
2019-04-27T09:34:38.588Z,80.50
2019-04-27T09:37:07.926Z,80.70
2019-04-27T09:39:37.191Z,80.80
2019-04-27T09:42:06.618Z,81.40
2019-04-27T09:44:37.150Z,81.40
2019-04-27T09:47:06.465Z,80.60
2019-04-27T09:49:36.812Z,80.00
2019-04-27T09:52:06.723Z,80.00
2019-04-27T09:54:36.578Z,80.40
2019-04-27T09:57:06.996Z,79.70
2019-04-27T09:59:39.439Z,80.20
2019-04-27T10:02:08.633Z,78.50
2019-04-27T10:04:38.021Z,78.90
2019-04-27T10:07:07.143Z,78.20
2019-04-27T10:09:36.848Z,77.80
2019-04-27T10:12:07.489Z,77.30
2019-04-27T10:14:37.092Z,77.00
2019-04-27T10:17:06.387Z,78.40
2019-04-27T10:19:36.566Z,76.50
2019-04-27T10:22:06.214Z,76.00
2019-04-27T10:24:35.927Z,75.00
2019-04-27T10:27:07.773Z,74.80
2019-04-27T10:29:36.630Z,75.60
2019-04-27T10:32:06.324Z,74.00
2019-04-27T10:34:35.658Z,75.50
2019-04-27T10:37:06.053Z,76.20
2019-04-27T10:39:36.205Z,75.70
2019-04-27T10:42:06.716Z,74.80
2019-04-27T10:44:36.157Z,75.70
2019-04-27T10:47:05.883Z,75.40
2019-04-27T10:49:35.532Z,71.70
2019-04-27T10:52:05.859Z,73.90
2019-04-27T10:54:35.237Z,72.80
2019-04-27T10:57:06.104Z,72.20
2019-04-27T10:59:36.142Z,71.40
2019-04-27T11:02:05.472Z,71.70
2019-04-27T11:04:53.168Z,71.40
2019-04-27T11:07:26.005Z,72.30
2019-04-27T11:09:55.268Z,70.90
2019-04-27T11:12:24.567Z,69.20
2019-04-27T11:14:53.799Z,69.90
2019-04-27T11:17:23.034Z,68.40
2019-04-27T11:19:52.437Z,69.90
2019-04-27T11:22:21.572Z,69.20
2019-04-27T11:24:50.838Z,70.00
2019-04-27T11:27:20.022Z,69.40
2019-04-27T11:29:49.088Z,69.70
2019-04-27T11:32:18.181Z,69.00
2019-04-27T11:35:05.790Z,69.40
2019-04-27T11:37:37.282Z,69.30
2019-04-27T11:40:07.628Z,69.90
2019-04-27T11:42:36.838Z,68.70
2019-04-27T11:45:07.858Z,68.40
2019-04-27T11:47:37.083Z,69.60
2019-04-27T11:50:08.194Z,72.60
2019-04-27T11:52:38.479Z,73.90
2019-04-27T11:55:08.462Z,73.60
2019-04-27T11:57:37.832Z,74.00
2019-04-27T12:00:10.017Z,73.20
2019-04-27T12:02:39.227Z,72.00
2019-04-27T12:05:08.837Z,72.80
2019-04-27T12:07:37.992Z,70.90
2019-04-27T12:10:08.173Z,70.20
2019-04-27T12:12:37.615Z,69.00
2019-04-27T12:15:07.367Z,70.50
2019-04-27T12:17:36.524Z,71.90
2019-04-27T12:20:06.414Z,70.10
2019-04-27T12:22:35.653Z,69.20
2019-04-27T12:25:06.569Z,69.10
2019-04-27T12:27:53.135Z,69.50
2019-04-27T12:30:29.550Z,69.50
2019-04-27T12:32:58.683Z,67.70
2019-04-27T12:35:27.761Z,68.10
2019-04-27T12:37:57.183Z,68.10
2019-04-27T12:40:26.816Z,67.30
2019-04-27T12:42:56.273Z,68.10
2019-04-27T12:45:26.711Z,66.20
2019-04-27T12:47:56.557Z,66.10
2019-04-27T12:50:26.444Z,66.20
2019-04-27T12:52:59.186Z,66.80
2019-04-27T12:55:40.950Z,66.70
2019-04-27T12:58:29.232Z,65.50
2019-04-27T13:01:00.204Z,66.40
2019-04-27T13:03:29.385Z,65.20
2019-04-27T13:05:58.806Z,66.10
2019-04-27T13:08:28.071Z,65.40
2019-04-27T13:10:57.870Z,66.50
2019-04-27T13:13:27.420Z,66.00
2019-04-27T13:15:56.562Z,66.50
2019-04-27T13:18:25.943Z,66.00
2019-04-27T13:20:55.364Z,64.20
2019-04-27T13:23:24.503Z,64.40
2019-04-27T13:25:53.696Z,64.90
2019-04-27T13:28:22.956Z,64.60
2019-04-27T13:30:52.133Z,64.80
2019-04-27T13:33:21.515Z,66.30
2019-04-27T13:35:50.627Z,64.40
2019-04-27T13:38:19.710Z,65.30
2019-04-27T13:41:06.009Z,64.90
2019-04-27T13:43:36.587Z,64.80
2019-04-27T13:46:25.907Z,64.10
2019-04-27T13:49:08.175Z,61.50
2019-04-27T13:51:57.506Z,61.50
2019-04-27T13:54:29.076Z,61.70
2019-04-27T13:56:58.992Z,62.70
2019-04-27T13:59:28.329Z,63.20
2019-04-27T14:01:57.405Z,60.70
2019-04-27T14:04:26.556Z,62.80
2019-04-27T14:06:55.665Z,63.70
2019-04-27T14:09:24.971Z,63.80
2019-04-27T14:11:57.702Z,63.90
2019-04-27T14:14:28.846Z,62.10
2019-04-27T14:16:58.113Z,62.10
2019-04-27T14:19:28.258Z,61.50
2019-04-27T14:21:59.045Z,60.40
2019-04-27T14:24:40.201Z,61.30
2019-04-27T14:27:10.423Z,59.80
2019-04-27T14:29:39.688Z,58.90
2019-04-27T14:32:08.965Z,61.00
2019-04-27T14:34:38.082Z,61.00
2019-04-27T14:37:08.686Z,60.70
2019-04-27T14:39:38.991Z,61.40
2019-04-27T14:42:08.445Z,62.70
2019-04-27T14:44:38.955Z,61.80
2019-04-27T14:47:08.316Z,60.60
2019-04-27T14:49:56.617Z,60.80
2019-04-27T14:52:25.816Z,61.30
2019-04-27T14:54:54.988Z,59.90
2019-04-27T14:57:24.373Z,62.20
2019-04-27T14:59:53.572Z,59.80
2019-04-27T15:02:22.799Z,61.60
2019-04-27T15:04:51.964Z,61.50
2019-04-27T15:07:21.140Z,60.00
2019-04-27T15:09:56.170Z,61.40
2019-04-27T15:12:24.495Z,61.20
2019-04-27T15:14:53.337Z,61.20
2019-04-27T15:17:26.607Z,61.00
2019-04-27T15:19:59.977Z,60.60
2019-04-27T15:22:31.359Z,61.70
2019-04-27T15:25:13.015Z,60.40
2019-04-27T15:27:37.711Z,61.10
2019-04-27T15:30:11.455Z,62.40
2019-04-27T15:33:10.554Z,63.10
2019-04-27T15:35:46.499Z,62.50
2019-04-27T15:38:20.499Z,65.10
2019-04-27T15:41:12.188Z,64.50
2019-04-27T15:43:42.787Z,66.40
2019-04-27T15:46:12.335Z,68.60
2019-04-27T15:48:41.678Z,71.50
2019-04-27T15:51:17.512Z,71.00
2019-04-27T15:53:46.004Z,72.00
2019-04-27T15:56:13.320Z,71.20
2019-04-27T15:58:49.400Z,71.80
2019-04-27T16:01:18.881Z,71.70
2019-04-27T16:03:48.307Z,72.20
2019-04-27T16:06:19.076Z,72.20
2019-04-27T16:09:10.608Z,71.60
2019-04-27T16:11:39.894Z,71.40
2019-04-27T16:14:09.059Z,71.40
2019-04-27T16:16:40.295Z,70.90
2019-04-27T16:19:11.562Z,71.40
2019-04-27T16:21:46.942Z,69.30
2019-04-27T16:24:12.573Z,69.30
2019-04-27T16:26:46.390Z,70.70
2019-04-27T16:29:13.390Z,68.90
2019-04-27T16:31:42.592Z,69.30
2019-04-27T16:34:11.837Z,68.70
2019-04-27T16:36:43.705Z,67.50
2019-04-27T16:39:12.353Z,67.80
2019-04-27T16:41:42.431Z,68.00
2019-04-27T16:44:11.617Z,68.70
2019-04-27T16:46:42.886Z,68.40
2019-04-27T16:49:13.652Z,67.90
2019-04-27T16:51:42.720Z,68.70
2019-04-27T16:54:17.750Z,68.00
2019-04-27T16:56:45.570Z,68.40
2019-04-27T16:59:43.401Z,68.80
2019-04-27T17:02:03.813Z,68.00
2019-04-27T17:04:33.087Z,68.20
2019-04-27T17:07:02.297Z,67.60
2019-04-27T17:09:36.129Z,68.70
2019-04-27T17:12:02.626Z,69.20
2019-04-27T17:14:53.817Z,68.40
2019-04-27T17:17:47.105Z,67.50
2019-04-27T17:20:19.639Z,68.00
2019-04-27T17:22:49.682Z,68.20
2019-04-27T17:25:20.042Z,69.40
2019-04-27T17:27:57.766Z,68.70
2019-04-27T17:30:25.753Z,68.50
2019-04-27T17:33:01.475Z,67.70
2019-04-27T17:35:34.670Z,67.00
2019-04-27T17:38:10.510Z,67.10
2019-04-27T17:40:36.265Z,67.00
2019-04-27T17:43:07.987Z,66.70
2019-04-27T17:45:37.665Z,66.30
2019-04-27T17:48:10.677Z,66.70
2019-04-27T17:50:38.684Z,67.80
2019-04-27T17:53:08.303Z,67.90
2019-04-27T17:55:37.975Z,68.30
2019-04-27T17:58:07.358Z,68.50
2019-04-27T18:00:42.917Z,68.20
2019-04-27T18:03:08.308Z,67.00
2019-04-27T18:05:38.977Z,67.50
2019-04-27T18:08:08.424Z,67.50
2019-04-27T18:10:37.860Z,68.40
2019-04-27T18:13:08.593Z,69.40
2019-04-27T18:15:38.810Z,69.30
2019-04-27T18:18:27.139Z,68.90
2019-04-27T18:20:55.815Z,69.00
2019-04-27T18:23:26.639Z,68.70
2019-04-27T18:26:03.239Z,68.60
2019-04-27T18:28:34.260Z,69.00
2019-04-27T18:31:11.629Z,68.90
2019-04-27T18:33:39.463Z,68.60
2019-04-27T18:36:13.774Z,68.20
2019-04-27T18:38:39.661Z,68.20
2019-04-27T18:41:11.682Z,68.20
2019-04-27T18:43:46.582Z,68.80
2019-04-27T18:46:10.770Z,67.50
2019-04-27T18:49:03.693Z,66.00
2019-04-27T18:51:58.132Z,67.30
2019-04-27T18:54:24.592Z,66.90
2019-04-27T18:57:04.224Z,67.20
2019-04-27T18:59:28.834Z,67.40
2019-04-27T19:01:58.128Z,67.10
2019-04-27T19:04:28.147Z,67.40
2019-04-27T19:06:59.844Z,67.30
2019-04-27T19:09:28.594Z,67.40
2019-04-27T19:11:58.318Z,67.70
2019-04-27T19:14:30.744Z,67.80
2019-04-27T19:17:01.869Z,67.90
2019-04-27T19:19:33.345Z,68.20
2019-04-27T19:22:02.543Z,67.80
2019-04-27T19:24:31.800Z,68.10
2019-04-27T19:27:16.120Z,68.30
2019-04-27T19:29:48.525Z,68.30
2019-04-27T19:32:20.070Z,68.30
2019-04-27T19:34:49.188Z,68.30
2019-04-27T19:37:18.463Z,68.20
2019-04-27T19:39:48.184Z,67.50
2019-04-27T19:42:20.293Z,68.50
2019-04-27T19:44:49.593Z,68.40
2019-04-27T19:47:18.793Z,68.80
2019-04-27T19:49:48.867Z,69.00
2019-04-27T19:52:22.556Z,69.30
2019-04-27T19:54:51.262Z,69.50
2019-04-27T19:57:31.985Z,69.50
2019-04-27T19:59:55.176Z,69.50
2019-04-27T20:02:24.591Z,69.30
2019-04-27T20:05:05.780Z,68.90
2019-04-27T20:07:35.198Z,68.70
2019-04-27T20:10:08.643Z,69.30
2019-04-27T20:12:37.814Z,69.00
2019-04-27T20:15:08.559Z,68.30
2019-04-27T20:17:37.847Z,68.50
2019-04-27T20:20:07.326Z,68.10
2019-04-27T20:22:36.429Z,67.50
2019-04-27T20:25:06.215Z,67.10
2019-04-27T20:27:46.016Z,67.50
2019-04-27T20:30:08.712Z,68.30
2019-04-27T20:32:56.936Z,68.10
2019-04-27T20:35:26.108Z,68.10
2019-04-27T20:37:55.231Z,68.60
2019-04-27T20:40:24.463Z,68.50
2019-04-27T20:42:53.616Z,69.00
2019-04-27T20:45:22.791Z,68.70
2019-04-27T20:47:52.697Z,69.00
2019-04-27T20:50:21.956Z,68.40
2019-04-27T20:52:59.171Z,68.30
2019-04-27T20:55:28.688Z,69.20
2019-04-27T20:58:02.386Z,69.40
2019-04-27T21:00:28.834Z,69.30
2019-04-27T21:03:23.087Z,68.50
2019-04-27T21:06:11.225Z,67.40
2019-04-27T21:08:41.445Z,66.90
2019-04-27T21:11:11.847Z,68.50
2019-04-27T21:13:41.777Z,71.90
2019-04-27T21:16:12.521Z,73.50
2019-04-27T21:18:42.072Z,75.20
2019-04-27T21:21:11.523Z,75.50
2019-04-27T21:23:41.440Z,76.20
2019-04-27T21:26:10.919Z,76.90
2019-04-27T21:28:42.984Z,77.80
2019-04-27T21:31:12.822Z,78.50
2019-04-27T21:33:42.090Z,78.30
2019-04-27T21:36:11.820Z,78.10
2019-04-27T21:38:42.846Z,78.30
2019-04-27T21:41:12.207Z,78.70
2019-04-27T21:43:42.116Z,78.30
2019-04-27T21:46:12.390Z,78.80
2019-04-27T21:48:41.644Z,78.40
2019-04-27T21:51:11.824Z,78.60
2019-04-27T21:54:00.278Z,77.60
2019-04-27T21:56:31.157Z,77.60
2019-04-27T21:59:05.627Z,78.40
2019-04-27T22:01:35.847Z,78.20
2019-04-27T22:04:05.622Z,79.70
2019-04-27T22:06:34.838Z,80.90
2019-04-27T22:09:07.204Z,80.60
2019-04-27T22:11:36.710Z,80.40
2019-04-27T22:14:06.167Z,81.00
2019-04-27T22:16:35.431Z,80.60
2019-04-27T22:19:05.653Z,81.00
2019-04-27T22:21:34.823Z,80.90
2019-04-27T22:24:35.536Z,79.90
2019-04-27T22:27:04.940Z,79.70
2019-04-27T22:29:34.178Z,80.40
2019-04-27T22:32:03.351Z,80.20
2019-04-27T22:34:32.747Z,79.60
2019-04-27T22:37:02.705Z,79.70
2019-04-27T22:39:48.244Z,79.90
2019-04-27T22:42:45.363Z,80.10
2019-04-27T22:45:21.556Z,79.90
2019-04-27T22:47:51.272Z,80.00
2019-04-27T22:50:21.037Z,80.00
2019-04-27T22:52:50.318Z,79.90
2019-04-27T22:55:19.434Z,79.70
2019-04-27T22:57:56.648Z,79.30
2019-04-27T23:00:47.877Z,80.40
2019-04-27T23:03:22.933Z,79.70
2019-04-27T23:05:52.206Z,80.60
2019-04-27T23:08:22.700Z,81.20
2019-04-27T23:10:52.075Z,82.00
2019-04-27T23:13:21.387Z,81.40
2019-04-27T23:15:52.204Z,81.90
2019-04-27T23:18:22.664Z,83.00
2019-04-27T23:20:52.317Z,81.80
2019-04-27T23:23:21.826Z,82.70
2019-04-27T23:25:51.372Z,82.10
2019-04-27T23:28:21.009Z,82.10
2019-04-27T23:31:08.131Z,82.70
2019-04-27T23:33:40.534Z,82.20
2019-04-27T23:36:11.486Z,82.60
2019-04-27T23:38:40.925Z,82.90
2019-04-27T23:41:11.608Z,82.50
2019-04-27T23:43:40.920Z,82.50
2019-04-27T23:46:11.592Z,83.10
2019-04-27T23:48:42.035Z,83.50
2019-04-27T23:51:33.244Z,83.90
2019-04-27T23:54:02.425Z,83.10
2019-04-27T23:56:31.856Z,83.10
2019-04-27T23:59:01.167Z,83.00
